Aviation Digital Data Service (ADDS)

Output produced by TAFs form (0012 UTC 26 April 2017)
found at http://aviationweather.gov/adds/tafs/
 
KPUB 252320Z 2600/2624 36012G22KT 2SM -SHRA OVC012 
     FM260300 01022G32KT 3SM -SHRA OVC020 
     FM260800 01015KT P6SM VCSH BKN030 OVC060 
     FM261100 35006KT P6SM SCT150 
     FM262000 06010KT P6SM SCT200